Time;durP1;ratioP1;P1;durP2;ratioP2;P2;SDS_P1;SDS_P2;PMS_P1;PMS_P2;Temp;Humidity;BMP_temperature;BMP_pressure;BME280_temperature;BME280_humidity;BME280_pressure;Samples;Min_cycle;Max_cycle;Signal;HPM_P1;HPM_P2
2023/06/28 00:01:36;;;;;;;;;;;;;;;25.84;56.91;99231.69;5093750;28;20307;-44
2023/06/28 00:04:02;;;;;;;;;;;;;;;25.50;58.22;99227.75;5093838;28;19981;-44
2023/06/28 00:06:27;;;;;;;;;;;;;;;25.39;58.60;99227.22;5093611;28;20258;-42
2023/06/28 00:08:53;;;;;;;;;;;;;;;25.38;58.66;99232.97;5093502;28;19912;-43
2023/06/28 00:11:18;;;;;;;;;;;;;;;25.51;58.69;99234.78;5093585;28;19912;-43
2023/06/28 00:13:43;;;;;;;;;;;;;;;25.48;58.34;99233.50;5093382;28;19916;-42
2023/06/28 00:16:08;;;;;;;;;;;;;;;25.22;59.05;99235.28;5093427;28;20355;-43
2023/06/28 00:18:35;;;;;;;;;;;;;;;25.31;57.85;99233.44;5094339;28;19916;-43
2023/06/28 00:21:02;;;;;;;;;;;;;;;25.39;58.26;99229.94;5094183;28;19916;-44
2023/06/28 00:23:27;;;;;;;;;;;;;;;25.27;58.58;99238.72;5093563;28;19912;-42
2023/06/28 00:25:53;;;;;;;;;;;;;;;25.34;58.12;99232.81;5093898;28;19912;-43
2023/06/28 00:28:18;;;;;;;;;;;;;;;25.30;58.30;99232.66;5093707;28;20368;-44
2023/06/28 00:30:43;;;;;;;;;;;;;;;25.37;56.68;99226.75;5094002;28;19927;-43
2023/06/28 00:33:09;;;;;;;;;;;;;;;25.49;55.96;99218.78;5093598;28;20379;-44
2023/06/28 00:35:34;;;;;;;;;;;;;;;25.51;55.61;99229.34;5093594;28;19923;-42
2023/06/28 00:37:59;;;;;;;;;;;;;;;25.26;56.14;99234.38;5093909;28;20358;-41
2023/06/28 00:40:24;;;;;;;;;;;;;;;25.15;57.69;99227.56;5093588;28;19916;-42
2023/06/28 00:42:50;;;;;;;;;;;;;;;25.07;58.23;99231.06;5093812;28;20334;-43
2023/06/28 00:45:15;;;;;;;;;;;;;;;24.97;58.44;99218.50;5093703;28;19965;-43
2023/06/28 00:47:42;;;;;;;;;;;;;;;25.22;58.71;99218.97;5093403;28;19918;-43
2023/06/28 00:50:08;;;;;;;;;;;;;;;25.12;59.01;99212.66;5093578;28;19919;-42
2023/06/28 00:52:33;;;;;;;;;;;;;;;25.01;59.12;99216.78;5093197;28;19912;-44
2023/06/28 00:54:59;;;;;;;;;;;;;;;24.92;59.89;99207.75;5093415;28;19912;-44
2023/06/28 00:57:24;;;;;;;;;;;;;;;24.48;61.74;99210.16;5093292;28;19916;-43
2023/06/28 00:59:50;;;;;;;;;;;;;;;24.33;62.39;99207.81;5093096;28;19960;-45
2023/06/28 01:02:15;;;;;;;;;;;;;;;24.45;61.61;99210.00;5091790;28;19912;-43
2023/06/28 01:04:40;;;;;;;;;;;;;;;24.80;60.56;99202.88;5093120;28;20421;-42
2023/06/28 01:07:08;;;;;;;;;;;;;;;24.69;60.76;99202.34;5093456;28;19915;-43
2023/06/28 01:09:33;;;;;;;;;;;;;;;24.73;60.97;99195.19;5093243;28;20002;-43
2023/06/28 01:11:59;;;;;;;;;;;;;;;24.18;62.69;99200.84;5092926;28;19989;-42
2023/06/28 01:14:24;;;;;;;;;;;;;;;23.73;64.73;99204.19;5092766;28;19995;-43
2023/06/28 01:16:54;;;;;;;;;;;;;;;23.73;64.66;99211.56;5093184;28;19944;-43
2023/06/28 01:19:23;;;;;;;;;;;;;;;24.18;62.86;99215.22;5092938;28;19919;-43
2023/06/28 01:21:50;;;;;;;;;;;;;;;25.07;59.74;99214.72;5092685;28;20295;-44
2023/06/28 01:24:15;;;;;;;;;;;;;;;25.52;57.68;99218.13;5092735;28;19912;-42
2023/06/28 01:26:41;;;;;;;;;;;;;;;25.75;57.17;99220.78;5092831;28;19918;-42
2023/06/28 01:29:06;;;;;;;;;;;;;;;25.87;56.96;99223.66;5092921;28;19912;-43
2023/06/28 01:31:32;;;;;;;;;;;;;;;25.99;56.53;99220.38;5092125;28;20030;-42
2023/06/28 01:33:57;;;;;;;;;;;;;;;26.08;56.32;99228.53;5092216;28;19916;-45
2023/06/28 01:36:23;;;;;;;;;;;;;;;26.03;56.58;99232.25;5092455;28;19970;-43
2023/06/28 01:38:48;;;;;;;;;;;;;;;26.04;56.57;99233.81;5090995;28;19919;-42
2023/06/28 01:41:14;;;;;;;;;;;;;;;26.07;56.28;99233.19;5092319;28;19943;-42
2023/06/28 01:43:40;;;;;;;;;;;;;;;26.01;56.28;99239.09;5077405;28;19920;-41
2023/06/28 01:46:05;;;;;;;;;;;;;;;25.96;55.53;99234.63;5072379;28;19969;-42
2023/06/28 01:48:31;;;;;;;;;;;;;;;25.90;56.06;99235.88;5086364;28;19919;-42
2023/06/28 01:50:57;;;;;;;;;;;;;;;25.83;56.66;99236.31;5092334;28;19969;-42
2023/06/28 01:53:22;;;;;;;;;;;;;;;25.76;54.81;99236.00;5092020;28;20328;-42
2023/06/28 01:55:48;;;;;;;;;;;;;;;25.59;56.07;99242.22;5092193;28;19916;-43
2023/06/28 01:58:13;;;;;;;;;;;;;;;24.74;58.13;99237.56;5092357;28;19912;-42
2023/06/28 02:00:38;;;;;;;;;;;;;;;24.15;59.34;99245.72;5092349;28;19951;-43
2023/06/28 02:03:04;;;;;;;;;;;;;;;24.07;59.02;99234.78;5092347;28;20287;-43
2023/06/28 02:05:29;;;;;;;;;;;;;;;24.31;58.16;99235.31;5091447;28;20007;-42
2023/06/28 02:07:54;;;;;;;;;;;;;;;24.81;57.05;99231.72;5091863;28;19919;-43
2023/06/28 02:10:21;;;;;;;;;;;;;;;24.88;56.99;99242.16;5091893;28;20329;-42
2023/06/28 02:12:46;;;;;;;;;;;;;;;24.54;57.59;99238.88;5091757;28;19912;-43
2023/06/28 02:15:13;;;;;;;;;;;;;;;24.85;56.84;99242.78;5091897;28;19916;-42
2023/06/28 02:17:39;;;;;;;;;;;;;;;25.11;56.37;99232.03;5091115;28;19923;-43
2023/06/28 02:20:06;;;;;;;;;;;;;;;25.15;55.87;99228.38;5091549;28;19916;-42
2023/06/28 02:22:31;;;;;;;;;;;;;;;25.23;55.47;99235.00;5092033;28;19934;-44
2023/06/28 02:24:56;;;;;;;;;;;;;;;25.17;55.61;99238.97;5091396;28;20295;-43
2023/06/28 02:27:21;;;;;;;;;;;;;;;25.24;55.17;99238.53;5091748;28;19961;-43
2023/06/28 02:29:47;;;;;;;;;;;;;;;25.26;54.99;99234.38;5091487;28;19964;-43
2023/06/28 02:32:12;;;;;;;;;;;;;;;25.15;55.18;99236.56;5097023;28;19919;-43
2023/06/28 02:34:37;;;;;;;;;;;;;;;25.23;54.53;99235.00;5091198;28;19927;-43
2023/06/28 02:37:03;;;;;;;;;;;;;;;25.31;54.82;99239.69;5104579;28;20012;-42
2023/06/28 02:39:28;;;;;;;;;;;;;;;25.39;54.37;99237.31;5084671;28;21386;-43
2023/06/28 02:41:53;;;;;;;;;;;;;;;25.30;54.50;99229.94;5089877;28;19931;-43
2023/06/28 02:44:19;;;;;;;;;;;;;;;25.34;54.49;99225.47;5091320;28;20061;-42
2023/06/28 02:46:44;;;;;;;;;;;;;;;25.38;54.24;99228.34;5080382;28;19982;-42
2023/06/28 02:49:09;;;;;;;;;;;;;;;25.35;54.13;99227.03;5091210;28;19912;-43
2023/06/28 02:51:34;;;;;;;;;;;;;;;25.05;55.04;99236.00;5091031;28;19948;-43
2023/06/28 02:54:00;;;;;;;;;;;;;;;24.76;54.80;99199.19;5087018;28;20030;-43
2023/06/28 02:56:25;;;;;;;;;;;;;;;24.44;56.22;99235.56;5090581;28;20303;-43
2023/06/28 02:58:51;;;;;;;;;;;;;;;23.67;58.76;99237.22;5090474;28;20000;-43
2023/06/28 03:01:16;;;;;;;;;;;;;;;23.50;59.39;99235.09;5090385;28;19924;-43
2023/06/28 03:03:41;;;;;;;;;;;;;;;23.56;59.36;99236.59;5088137;28;20007;-43
2023/06/28 03:06:07;;;;;;;;;;;;;;;23.71;58.40;99235.50;5089228;28;19912;-42
2023/06/28 03:08:33;;;;;;;;;;;;;;;23.77;57.98;99237.00;5090823;28;19912;-43
2023/06/28 03:10:58;;;;;;;;;;;;;;;23.75;58.15;99237.31;5091279;28;19919;-43
2023/06/28 03:13:23;;;;;;;;;;;;;;;23.61;58.62;99237.31;5090850;28;19912;-44
2023/06/28 03:15:49;;;;;;;;;;;;;;;23.60;58.33;99243.03;5090913;28;20417;-42
2023/06/28 03:18:14;;;;;;;;;;;;;;;23.33;58.28;99247.34;5090049;28;20011;-43
2023/06/28 03:20:40;;;;;;;;;;;;;;;23.32;57.88;99250.38;5090725;28;19924;-43
2023/06/28 03:23:05;;;;;;;;;;;;;;;23.28;58.00;99252.06;5091132;28;19912;-44
2023/06/28 03:25:30;;;;;;;;;;;;;;;23.35;58.02;99255.19;5090537;28;20384;-44
2023/06/28 03:27:56;;;;;;;;;;;;;;;23.45;57.82;99254.19;5090457;28;20001;-44
2023/06/28 03:30:21;;;;;;;;;;;;;;;23.19;58.34;99262.84;5090746;28;19912;-44
2023/06/28 03:32:47;;;;;;;;;;;;;;;23.56;57.75;99261.06;5089357;28;19924;-43
2023/06/28 03:35:12;;;;;;;;;;;;;;;23.47;58.19;99266.38;5090145;28;20376;-43
2023/06/28 03:37:37;;;;;;;;;;;;;;;23.47;58.31;99262.84;5090527;28;20033;-44
2023/06/28 03:40:04;;;;;;;;;;;;;;;23.48;58.43;99267.19;5089981;28;19912;-43
2023/06/28 03:42:29;;;;;;;;;;;;;;;23.67;57.58;99257.03;5090411;28;19920;-44
2023/06/28 03:44:55;;;;;;;;;;;;;;;23.96;56.79;99259.44;5090838;28;20341;-42
2023/06/28 03:47:20;;;;;;;;;;;;;;;24.09;56.66;99260.53;5090364;28;20018;-42
2023/06/28 03:49:46;;;;;;;;;;;;;;;24.25;56.13;99252.84;5090433;28;19912;-43
2023/06/28 03:52:11;;;;;;;;;;;;;;;24.29;56.13;99256.53;5090635;28;19912;-42
2023/06/28 03:54:36;;;;;;;;;;;;;;;24.41;55.72;99253.31;5090325;28;20004;-42
2023/06/28 03:57:02;;;;;;;;;;;;;;;24.53;55.64;99259.03;5090561;28;20264;-42
2023/06/28 03:59:27;;;;;;;;;;;;;;;24.39;55.36;99263.69;5090025;28;19912;-41
2023/06/28 04:01:52;;;;;;;;;;;;;;;24.46;55.22;99265.97;5089954;28;19974;-44
2023/06/28 04:04:17;;;;;;;;;;;;;;;24.43;55.66;99270.13;5089414;28;19919;-43
2023/06/28 04:06:43;;;;;;;;;;;;;;;24.25;56.22;99268.34;5089725;28;19912;-44
2023/06/28 04:09:08;;;;;;;;;;;;;;;24.57;55.41;99267.38;5089227;28;20084;-43
2023/06/28 04:11:33;;;;;;;;;;;;;;;24.72;54.70;99266.22;5089128;28;19912;-44
2023/06/28 04:13:59;;;;;;;;;;;;;;;24.82;54.59;99271.41;5089429;28;20249;-42
2023/06/28 04:16:24;;;;;;;;;;;;;;;24.76;54.56;99261.75;5089285;28;20290;-43
2023/06/28 04:18:51;;;;;;;;;;;;;;;24.84;54.61;99261.00;5090274;28;20370;-43
2023/06/28 04:21:17;;;;;;;;;;;;;;;24.93;54.17;99256.44;5090130;28;19973;-44
2023/06/28 04:23:42;;;;;;;;;;;;;;;25.29;53.73;99260.97;5090371;28;20342;-43
2023/06/28 04:26:07;;;;;;;;;;;;;;;25.66;52.45;99263.53;5089957;28;19951;-42
2023/06/28 04:28:33;;;;;;;;;;;;;;;26.02;51.68;99271.50;5089123;28;19950;-43
2023/06/28 04:30:58;;;;;;;;;;;;;;;26.17;51.70;99261.28;5094106;28;20356;-43
2023/06/28 04:33:23;;;;;;;;;;;;;;;26.24;50.36;99261.63;5093909;28;19924;-44
2023/06/28 04:35:51;;;;;;;;;;;;;;;26.34;50.23;99267.53;5093538;28;19912;-43
2023/06/28 04:38:19;;;;;;;;;;;;;;;26.78;48.85;99267.56;5092437;28;19919;-43
2023/06/28 04:40:44;;;;;;;;;;;;;;;27.12;48.34;99268.63;5092037;28;19916;-42
2023/06/28 04:43:14;;;;;;;;;;;;;;;27.45;47.16;99268.06;5091230;28;20269;-43
2023/06/28 04:45:39;;;;;;;;;;;;;;;27.38;47.50;99274.03;5091254;28;19919;-44
2023/06/28 04:48:05;;;;;;;;;;;;;;;27.09;47.63;99280.19;5091299;28;19916;-44
2023/06/28 04:50:34;;;;;;;;;;;;;;;26.92;48.08;99283.75;5090397;28;19912;-43
2023/06/28 04:52:59;;;;;;;;;;;;;;;26.67;48.92;99288.94;5089915;28;20069;-44
2023/06/28 04:55:25;;;;;;;;;;;;;;;26.78;48.58;99280.41;5089984;28;20023;-45
2023/06/28 04:57:51;;;;;;;;;;;;;;;26.70;48.61;99280.09;5090299;28;20008;-43
2023/06/28 05:00:16;;;;;;;;;;;;;;;26.70;48.82;99279.28;5089843;28;19924;-45
2023/06/28 05:02:41;;;;;;;;;;;;;;;26.75;49.30;99275.59;5091157;28;19962;-43
2023/06/28 05:05:07;;;;;;;;;;;;;;;26.59;49.37;99276.06;5091705;28;19963;-42
2023/06/28 05:07:32;;;;;;;;;;;;;;;26.56;49.75;99278.63;5093102;28;19912;-43
2023/06/28 05:09:57;;;;;;;;;;;;;;;26.78;49.38;99281.19;5092933;28;20293;-43
2023/06/28 05:12:22;;;;;;;;;;;;;;;27.23;48.16;99274.53;5092734;28;19919;-44
2023/06/28 05:14:48;;;;;;;;;;;;;;;27.99;46.32;99283.91;5092542;28;19919;-41
2023/06/28 05:17:13;;;;;;;;;;;;;;;28.17;46.16;99274.44;5092501;28;20299;-44
2023/06/28 05:19:38;;;;;;;;;;;;;;;28.45;45.26;99277.47;5092607;28;19912;-41
2023/06/28 05:22:04;;;;;;;;;;;;;;;28.68;44.76;99282.63;5092426;28;19947;-42
2023/06/28 05:24:29;;;;;;;;;;;;;;;28.94;44.42;99278.81;5092624;28;20303;-43
2023/06/28 05:26:54;;;;;;;;;;;;;;;29.20;43.50;99278.59;5092310;28;19966;-42
2023/06/28 05:29:19;;;;;;;;;;;;;;;29.23;43.24;99281.44;5092411;28;20424;-43
2023/06/28 05:31:45;;;;;;;;;;;;;;;29.22;42.93;99279.03;5092632;28;19927;-43
2023/06/28 05:34:11;;;;;;;;;;;;;;;29.48;42.93;99283.44;5092422;28;19974;-42
2023/06/28 05:36:36;;;;;;;;;;;;;;;29.87;41.85;99278.44;5092432;28;20426;-44
2023/06/28 05:39:02;;;;;;;;;;;;;;;29.85;42.36;99283.47;5092294;28;19912;-44
2023/06/28 05:41:28;;;;;;;;;;;;;;;30.40;40.97;99285.56;5092078;28;19928;-43
2023/06/28 05:43:54;;;;;;;;;;;;;;;30.56;40.23;99282.09;5090356;28;20360;-43
2023/06/28 05:46:19;;;;;;;;;;;;;;;30.37;40.58;99280.78;5092381;28;19934;-43
2023/06/28 05:48:47;;;;;;;;;;;;;;;30.03;40.87;99276.59;5091958;28;19915;-41
2023/06/28 05:51:14;;;;;;;;;;;;;;;30.25;39.77;99280.75;5092092;28;19919;-42
2023/06/28 05:53:40;;;;;;;;;;;;;;;30.85;39.55;99282.91;5091849;28;19916;-42
2023/06/28 05:56:06;;;;;;;;;;;;;;;30.62;38.91;99279.91;5091545;28;19927;-44
2023/06/28 05:58:31;;;;;;;;;;;;;;;30.32;38.80;99281.00;5091647;28;19912;-43
2023/06/28 06:00:56;;;;;;;;;;;;;;;30.98;38.47;99278.97;5090648;28;19912;-44
2023/06/28 06:03:23;;;;;;;;;;;;;;;31.13;37.93;99269.94;5091656;28;19912;-41
2023/06/28 06:05:48;;;;;;;;;;;;;;;31.70;36.58;99278.03;5091713;28;19989;-42
2023/06/28 06:08:13;;;;;;;;;;;;;;;31.70;36.54;99267.84;5091508;28;19970;-42
2023/06/28 06:10:38;;;;;;;;;;;;;;;31.60;36.62;99270.34;5092229;28;19912;-42
2023/06/28 06:13:04;;;;;;;;;;;;;;;32.49;35.97;99258.56;5091370;28;20007;-42
2023/06/28 06:15:29;;;;;;;;;;;;;;;32.70;35.72;99260.97;5091760;28;19965;-42
2023/06/28 06:17:54;;;;;;;;;;;;;;;32.79;34.70;99251.72;5091312;28;19973;-44
2023/06/28 06:20:20;;;;;;;;;;;;;;;32.89;34.53;99251.09;5091468;28;19916;-42
2023/06/28 06:22:45;;;;;;;;;;;;;;;32.36;34.56;99239.81;5091389;28;20327;-43
2023/06/28 06:25:10;;;;;;;;;;;;;;;31.85;35.44;99241.44;5091435;28;20003;-43
2023/06/28 06:27:36;;;;;;;;;;;;;;;32.57;35.02;99247.72;5091474;28;19919;-44
2023/06/28 06:30:01;;;;;;;;;;;;;;;33.04;33.97;99255.69;5091577;28;19912;-42
2023/06/28 06:32:27;;;;;;;;;;;;;;;33.35;33.57;99247.59;5091290;28;20008;-42
2023/06/28 06:34:53;;;;;;;;;;;;;;;33.30;33.51;99248.69;5091757;28;19952;-46
2023/06/28 06:37:19;;;;;;;;;;;;;;;32.65;34.20;99257.72;5091277;28;20293;-45
2023/06/28 06:39:44;;;;;;;;;;;;;;;33.03;34.21;99261.56;5091729;28;20388;-43
2023/06/28 06:42:09;;;;;;;;;;;;;;;33.46;33.32;99257.63;5091345;28;20388;-44
2023/06/28 06:44:35;;;;;;;;;;;;;;;33.63;33.33;99250.00;5091123;28;19927;-43
2023/06/28 06:47:01;;;;;;;;;;;;;;;33.66;32.97;99249.28;5091567;28;20011;-43
2023/06/28 06:49:26;;;;;;;;;;;;;;;33.79;32.93;99250.66;5091329;28;19919;-43
2023/06/28 06:51:52;;;;;;;;;;;;;;;33.96;32.60;99251.28;5091237;28;20272;-46
2023/06/28 06:54:17;;;;;;;;;;;;;;;34.07;32.60;99246.72;5091428;28;19923;-44
2023/06/28 06:56:42;;;;;;;;;;;;;;;33.25;33.39;99244.28;5091141;28;19912;-43
2023/06/28 06:59:07;;;;;;;;;;;;;;;33.91;32.54;99246.09;5091407;28;19930;-44
2023/06/28 07:01:34;;;;;;;;;;;;;;;33.27;33.66;99247.47;5091067;28;19996;-43
2023/06/28 07:04:00;;;;;;;;;;;;;;;33.92;32.70;99242.19;5090954;28;19912;-44
2023/06/28 07:06:25;;;;;;;;;;;;;;;33.91;32.84;99233.09;5091431;28;19988;-42
2023/06/28 07:08:50;;;;;;;;;;;;;;;33.08;34.25;99237.28;5090949;28;20392;-43
2023/06/28 07:11:15;;;;;;;;;;;;;;;33.93;32.83;99227.19;5090502;28;19913;-42
2023/06/28 07:13:41;;;;;;;;;;;;;;;34.39;32.84;99222.31;5090859;28;19912;-43
2023/06/28 07:16:06;;;;;;;;;;;;;;;34.79;32.60;99222.78;5091077;28;19946;-43
2023/06/28 07:18:31;;;;;;;;;;;;;;;34.98;31.92;99219.00;5090457;28;20065;-41
2023/06/28 07:20:56;;;;;;;;;;;;;;;35.29;31.23;99208.63;5090523;28;19927;-43
2023/06/28 07:23:22;;;;;;;;;;;;;;;35.46;30.82;99209.94;5091168;28;20247;-42
2023/06/28 07:25:47;;;;;;;;;;;;;;;35.27;30.91;99213.75;5090995;28;19920;-43
2023/06/28 07:28:12;;;;;;;;;;;;;;;34.46;32.00;99205.81;5090820;28;19965;-42
2023/06/28 07:30:54;;;;;;;;;;;;;;;33.27;33.63;99205.31;5090800;28;19916;-43
2023/06/28 07:33:23;;;;;;;;;;;;;;;34.29;32.73;99206.41;5090375;28;19985;-43
2023/06/28 07:35:51;;;;;;;;;;;;;;;34.06;32.83;99210.06;5090940;28;20414;-45
2023/06/28 07:38:20;;;;;;;;;;;;;;;34.68;32.97;99216.34;5090731;28;19919;-43
2023/06/28 07:40:46;;;;;;;;;;;;;;;35.39;31.16;99216.97;5090618;28;19916;-45
2023/06/28 07:43:11;;;;;;;;;;;;;;;35.75;30.84;99205.41;5090528;28;19919;-44
2023/06/28 07:45:36;;;;;;;;;;;;;;;35.55;30.62;99210.41;5090374;28;19912;-42
2023/06/28 07:48:02;;;;;;;;;;;;;;;34.46;31.07;99205.00;5089363;28;19912;-43
2023/06/28 07:50:27;;;;;;;;;;;;;;;34.34;32.06;99205.28;5090808;28;19970;-44
2023/06/28 07:52:52;;;;;;;;;;;;;;;34.77;31.06;99206.56;5090429;28;20030;-43
2023/06/28 07:55:18;;;;;;;;;;;;;;;35.39;30.35;99208.69;5090551;28;19916;-43
2023/06/28 07:57:43;;;;;;;;;;;;;;;35.91;30.14;99207.84;5090594;28;19919;-43
2023/06/28 08:00:10;;;;;;;;;;;;;;;35.78;29.45;99202.66;5090490;28;20002;-43
2023/06/28 08:02:35;;;;;;;;;;;;;;;34.79;30.33;99201.47;5090304;28;19938;-43
2023/06/28 08:05:01;;;;;;;;;;;;;;;34.76;30.61;99204.19;5093717;28;20356;-44
2023/06/28 08:07:26;;;;;;;;;;;;;;;35.15;30.75;99204.53;5094310;28;20073;-43
2023/06/28 08:09:51;;;;;;;;;;;;;;;36.07;28.84;99200.03;5093929;28;19912;-44
2023/06/28 08:12:16;;;;;;;;;;;;;;;36.37;29.05;99193.44;5094235;28;20020;-42
2023/06/28 08:14:42;;;;;;;;;;;;;;;36.26;29.28;99187.09;5094083;28;19912;-44
2023/06/28 08:17:07;;;;;;;;;;;;;;;36.60;29.01;99187.56;5093883;28;19919;-43
2023/06/28 08:19:32;;;;;;;;;;;;;;;36.50;29.28;99186.34;5093946;28;19918;-43
2023/06/28 08:21:58;;;;;;;;;;;;;;;36.77;29.57;99195.13;5093803;28;19916;-43
2023/06/28 08:24:23;;;;;;;;;;;;;;;36.41;28.75;99185.94;5093744;28;19912;-43
2023/06/28 08:26:49;;;;;;;;;;;;;;;36.04;29.23;99186.94;5093973;28;19912;-42
2023/06/28 08:29:16;;;;;;;;;;;;;;;36.22;30.08;99178.75;5093862;28;19954;-43
2023/06/28 08:31:41;;;;;;;;;;;;;;;36.19;29.70;99180.34;5093655;28;19920;-42
2023/06/28 08:34:07;;;;;;;;;;;;;;;36.59;28.72;99180.44;5093967;28;19923;-43
2023/06/28 08:36:32;;;;;;;;;;;;;;;36.82;28.59;99171.00;5093929;28;19912;-44
2023/06/28 08:38:57;;;;;;;;;;;;;;;36.77;27.81;99172.97;5093367;28;20065;-43
2023/06/28 08:41:24;;;;;;;;;;;;;;;36.60;28.61;99176.47;5093307;28;19954;-42
2023/06/28 08:43:52;;;;;;;;;;;;;;;36.71;28.78;99160.69;5093453;28;19938;-43
2023/06/28 08:46:18;;;;;;;;;;;;;;;36.72;28.72;99172.56;5093203;28;19915;-43
2023/06/28 08:48:44;;;;;;;;;;;;;;;36.86;28.20;99163.47;5093149;28;19919;-43
2023/06/28 08:51:09;;;;;;;;;;;;;;;36.94;28.03;99160.31;5093306;28;19918;-42
2023/06/28 08:53:35;;;;;;;;;;;;;;;37.16;27.26;99158.34;5093456;28;19912;-42
2023/06/28 08:56:01;;;;;;;;;;;;;;;37.32;27.25;99149.63;5093093;28;19919;-44
2023/06/28 08:58:26;;;;;;;;;;;;;;;37.05;26.57;99149.22;5093196;28;19916;-45
2023/06/28 09:00:52;;;;;;;;;;;;;;;35.48;27.48;99149.50;5092915;28;19916;-43
2023/06/28 09:03:18;;;;;;;;;;;;;;;35.66;27.00;99141.28;5093223;28;19912;-42
2023/06/28 09:05:44;;;;;;;;;;;;;;;35.98;27.00;99147.00;5093486;28;20479;-42
2023/06/28 09:08:10;;;;;;;;;;;;;;;36.14;28.22;99147.47;5093295;28;19912;-44
2023/06/28 09:10:36;;;;;;;;;;;;;;;36.87;27.50;99142.88;5092976;28;19916;-46
2023/06/28 09:13:02;;;;;;;;;;;;;;;37.07;26.98;99129.41;5093188;28;19912;-43
2023/06/28 09:15:28;;;;;;;;;;;;;;;37.09;26.60;99133.38;5092764;28;19912;-44
2023/06/28 09:17:53;;;;;;;;;;;;;;;36.91;26.09;99132.59;5092728;28;19961;-46
2023/06/28 09:20:19;;;;;;;;;;;;;;;36.88;25.91;99136.94;5092343;28;19912;-44
2023/06/28 09:22:58;;;;;;;;;;;;;;;36.68;26.55;99135.75;5092768;28;19918;-43
2023/06/28 09:25:27;;;;;;;;;;;;;;;36.89;26.62;99129.41;5092956;28;20383;-45
2023/06/28 09:27:54;;;;;;;;;;;;;;;36.45;26.18;99127.78;5093192;28;19912;-46
2023/06/28 09:30:20;;;;;;;;;;;;;;;36.56;25.54;99128.59;5092583;28;19916;-44
2023/06/28 09:32:50;;;;;;;;;;;;;;;35.61;28.06;99123.88;5092028;28;20010;-43
2023/06/28 09:35:15;;;;;;;;;;;;;;;35.72;27.65;99132.28;5092473;28;19967;-44
2023/06/28 09:37:41;;;;;;;;;;;;;;;36.33;26.40;99118.66;5092490;28;19959;-43
2023/06/28 09:40:06;;;;;;;;;;;;;;;36.59;26.36;99119.47;5092349;28;19912;-47
2023/06/28 09:42:32;;;;;;;;;;;;;;;36.78;25.82;99121.09;5092686;28;19916;-43
2023/06/28 09:44:57;;;;;;;;;;;;;;;36.56;25.52;99115.53;5092213;28;19938;-42
2023/06/28 09:47:31;;;;;;;;;;;;;;;36.06;27.66;99120.91;5092073;28;19912;-43
2023/06/28 09:49:57;;;;;;;;;;;;;;;36.39;26.71;99113.53;5092430;28;19919;-42
2023/06/28 09:52:22;;;;;;;;;;;;;;;36.63;26.67;99117.50;5092104;28;19919;-44
2023/06/28 09:54:49;;;;;;;;;;;;;;;36.76;26.74;99113.16;5091619;28;20033;-45
2023/06/28 09:57:16;;;;;;;;;;;;;;;36.16;27.27;99106.31;5091685;28;19995;-45
2023/06/28 09:59:41;;;;;;;;;;;;;;;36.60;26.68;99112.75;5091887;28;20321;-43
2023/06/28 10:02:07;;;;;;;;;;;;;;;36.93;26.07;99111.59;5090609;28;19916;-43
2023/06/28 10:04:37;;;;;;;;;;;;;;;37.23;25.25;99104.84;5092107;28;19990;-45
2023/06/28 10:07:03;;;;;;;;;;;;;;;37.13;24.96;99100.91;5091830;28;19920;-43
2023/06/28 10:09:36;;;;;;;;;;;;;;;37.43;25.19;99098.84;5091798;28;19919;-45
2023/06/28 10:12:03;;;;;;;;;;;;;;;37.44;24.91;99106.78;5092277;28;20421;-44
2023/06/28 10:14:31;;;;;;;;;;;;;;;37.04;24.89;99091.41;5092141;28;19919;-46
2023/06/28 10:16:59;;;;;;;;;;;;;;;36.99;24.88;99092.56;5091728;28;20353;-43
2023/06/28 10:19:25;;;;;;;;;;;;;;;37.09;25.97;99091.78;5091817;28;19945;-44
2023/06/28 10:21:50;;;;;;;;;;;;;;;37.19;25.94;99092.19;5091445;28;20018;-44
2023/06/28 10:24:16;;;;;;;;;;;;;;;37.33;24.91;99084.63;5092059;28;19966;-43
2023/06/28 10:26:43;;;;;;;;;;;;;;;37.26;25.74;99081.88;5090965;28;20336;-43
2023/06/28 10:29:08;;;;;;;;;;;;;;;37.03;25.02;99084.25;5091144;28;20406;-44
2023/06/28 10:31:33;;;;;;;;;;;;;;;37.02;25.72;99074.38;5091464;28;19946;-43
2023/06/28 10:33:59;;;;;;;;;;;;;;;37.14;25.29;99071.97;5091476;28;20331;-42
2023/06/28 10:36:26;;;;;;;;;;;;;;;37.09;25.63;99066.03;5091413;28;20364;-46
2023/06/28 10:38:51;;;;;;;;;;;;;;;37.14;25.84;99066.44;5091786;28;19912;-43
2023/06/28 10:41:17;;;;;;;;;;;;;;;37.46;25.49;99056.44;5089351;28;19935;-44
2023/06/28 10:43:42;;;;;;;;;;;;;;;37.36;25.90;99050.53;5083778;28;20367;-43
2023/06/28 10:46:21;;;;;;;;;;;;;;;37.36;25.76;99058.06;5087925;28;20030;-44
2023/06/28 10:48:46;;;;;;;;;;;;;;;36.98;25.63;99064.06;5086239;28;20456;-44
2023/06/28 10:51:13;;;;;;;;;;;;;;;36.86;24.92;99056.19;5089479;28;19920;-43
2023/06/28 10:53:50;;;;;;;;;;;;;;;36.50;25.97;99055.34;5091558;28;19912;-43
2023/06/28 10:56:17;;;;;;;;;;;;;;;36.76;26.15;99049.44;5087055;28;20303;-45
2023/06/28 10:58:43;;;;;;;;;;;;;;;36.46;26.84;99055.38;5086819;28;19920;-44
2023/06/28 11:01:10;;;;;;;;;;;;;;;36.08;26.53;99054.91;5090551;28;20298;-43
2023/06/28 11:03:42;;;;;;;;;;;;;;;36.00;26.94;99067.94;5090615;28;19912;-42
2023/06/28 11:06:11;;;;;;;;;;;;;;;36.35;26.58;99049.81;5091191;28;19912;-42
2023/06/28 11:08:38;;;;;;;;;;;;;;;36.35;26.26;99058.13;5090996;28;20431;-43
2023/06/28 11:11:04;;;;;;;;;;;;;;;36.12;27.54;99057.66;5090864;28;19912;-43
2023/06/28 11:13:33;;;;;;;;;;;;;;;35.96;26.86;99052.47;5091025;28;19916;-44
2023/06/28 11:16:18;;;;;;;;;;;;;;;35.89;27.08;99041.38;5090973;28;20330;-44
2023/06/28 11:18:43;;;;;;;;;;;;;;;35.90;26.59;99040.22;5090551;28;19918;-42
2023/06/28 11:21:16;;;;;;;;;;;;;;;35.92;27.01;99041.41;5090648;28;19916;-42
2023/06/28 11:23:42;;;;;;;;;;;;;;;35.30;27.92;99041.53;5090554;28;19935;-44
2023/06/28 11:26:11;;;;;;;;;;;;;;;35.76;27.02;99044.53;5090577;28;20010;-43
2023/06/28 11:28:36;;;;;;;;;;;;;;;35.81;27.73;99035.84;5083637;28;19973;-45
2023/06/28 11:31:11;;;;;;;;;;;;;;;35.97;27.47;99045.78;5090363;28;19920;-44
2023/06/28 11:33:37;;;;;;;;;;;;;;;35.99;27.42;99038.66;5090002;28;19924;-43
2023/06/28 11:36:03;;;;;;;;;;;;;;;35.78;27.61;99039.41;5090219;28;19912;-43
2023/06/28 11:38:28;;;;;;;;;;;;;;;35.57;28.36;99034.56;5088377;28;20003;-42
2023/06/28 11:40:53;;;;;;;;;;;;;;;35.74;28.44;99030.28;5092642;28;19920;-43
2023/06/28 11:43:20;;;;;;;;;;;;;;;35.82;28.23;99034.66;5095021;28;20292;-36
2023/06/28 11:45:45;;;;;;;;;;;;;;;35.37;28.07;99036.03;5094755;28;20348;-42
2023/06/28 11:48:10;;;;;;;;;;;;;;;35.23;28.25;99040.31;5095260;28;19912;-43
2023/06/28 11:50:36;;;;;;;;;;;;;;;35.38;28.54;99030.13;5094546;28;20287;-38
2023/06/28 11:53:02;;;;;;;;;;;;;;;35.42;28.32;99027.38;5095289;28;19918;-36
2023/06/28 11:55:28;;;;;;;;;;;;;;;35.73;27.22;99017.63;5094190;28;19919;-37
2023/06/28 11:57:53;;;;;;;;;;;;;;;35.89;27.71;99024.78;5096653;28;19951;-36
2023/06/28 12:00:18;;;;;;;;;;;;;;;35.70;28.10;99026.72;5093717;28;20361;-37
2023/06/28 12:02:47;;;;;;;;;;;;;;;35.50;28.10;99019.91;5092892;28;19919;-38
2023/06/28 12:05:12;;;;;;;;;;;;;;;35.67;28.52;99019.16;5095026;28;19928;-35
2023/06/28 12:07:38;;;;;;;;;;;;;;;35.95;27.64;99015.72;5095163;28;20331;-36
2023/06/28 12:10:03;;;;;;;;;;;;;;;35.88;27.66;99007.41;5094905;28;19912;-37
2023/06/28 12:12:33;;;;;;;;;;;;;;;35.78;27.45;99005.41;5094490;28;19973;-36
2023/06/28 12:14:58;;;;;;;;;;;;;;;35.73;27.69;98995.50;5095346;28;19935;-36
2023/06/28 12:17:24;;;;;;;;;;;;;;;35.86;27.84;98995.16;5094503;28;20360;-36
2023/06/28 12:19:49;;;;;;;;;;;;;;;35.72;27.92;98993.94;5091841;28;20315;-36
2023/06/28 12:22:14;;;;;;;;;;;;;;;36.18;28.00;98989.69;5094325;28;20308;-36
2023/06/28 12:24:40;;;;;;;;;;;;;;;35.99;27.94;98993.59;5094141;28;20425;-37
2023/06/28 12:27:07;;;;;;;;;;;;;;;35.97;27.55;98987.66;5094596;28;20086;-37
2023/06/28 12:29:35;;;;;;;;;;;;;;;35.82;27.98;98992.38;5094251;28;19919;-36
2023/06/28 12:32:11;;;;;;;;;;;;;;;35.83;28.04;98985.63;5094551;28;20084;-37
2023/06/28 12:34:38;;;;;;;;;;;;;;;35.58;28.12;98980.00;5092722;28;19943;-37
2023/06/28 12:37:08;;;;;;;;;;;;;;;35.44;27.99;98983.53;5092959;28;19923;-36
2023/06/28 12:39:34;;;;;;;;;;;;;;;35.47;28.21;98990.25;5093013;28;19916;-36
2023/06/28 12:42:00;;;;;;;;;;;;;;;35.59;27.84;98992.66;5092838;28;19916;-37